sensor_id;sensor_type;location;lat;lon;timestamp;pressure;altitude;pressure_sealevel;temperature;humidity
3748;BME280;1889;50.058;8.688;2024-02-21T00:00:35;101137.28;;;12.74;64.30
3748;BME280;1889;50.058;8.688;2024-02-21T00:03:12;101145.76;;;12.15;67.24
3748;BME280;1889;50.058;8.688;2024-02-21T00:05:37;101156.27;;;12.19;67.38
3748;BME280;1889;50.058;8.688;2024-02-21T00:08:07;101143.36;;;12.40;66.70
3748;BME280;1889;50.058;8.688;2024-02-21T00:11:12;101138.31;;;12.61;66.43
3748;BME280;1889;50.058;8.688;2024-02-21T00:13:46;101131.55;;;12.75;66.28
3748;BME280;1889;50.058;8.688;2024-02-21T00:16:15;101132.32;;;12.87;65.91
3748;BME280;1889;50.058;8.688;2024-02-21T00:18:45;101137.07;;;12.52;67.33
3748;BME280;1889;50.058;8.688;2024-02-21T00:21:15;101135.09;;;12.26;68.31
3748;BME280;1889;50.058;8.688;2024-02-21T00:23:49;101137.30;;;12.26;68.38
3748;BME280;1889;50.058;8.688;2024-02-21T00:26:21;101137.30;;;12.26;68.38
3748;BME280;1889;50.058;8.688;2024-02-21T00:28:59;101139.34;;;12.45;67.98
3748;BME280;1889;50.058;8.688;2024-02-21T00:31:27;101115.96;;;12.49;67.88
3748;BME280;1889;50.058;8.688;2024-02-21T00:34:00;101115.96;;;12.49;67.88
3748;BME280;1889;50.058;8.688;2024-02-21T00:36:29;101112.70;;;12.22;69.06
3748;BME280;1889;50.058;8.688;2024-02-21T00:39:02;101106.03;;;12.32;69.09
3748;BME280;1889;50.058;8.688;2024-02-21T00:41:33;101084.84;;;12.38;69.16
3748;BME280;1889;50.058;8.688;2024-02-21T00:44:04;101089.70;;;12.35;69.16
3748;BME280;1889;50.058;8.688;2024-02-21T00:46:40;101095.27;;;12.02;70.76
3748;BME280;1889;50.058;8.688;2024-02-21T00:49:28;101095.27;;;12.02;70.76
3748;BME280;1889;50.058;8.688;2024-02-21T00:52:02;101091.18;;;12.17;70.24
3748;BME280;1889;50.058;8.688;2024-02-21T00:54:36;101080.06;;;11.78;71.91
3748;BME280;1889;50.058;8.688;2024-02-21T00:57:07;101072.33;;;12.10;70.90
3748;BME280;1889;50.058;8.688;2024-02-21T00:59:39;101070.39;;;12.32;69.87
3748;BME280;1889;50.058;8.688;2024-02-21T01:02:15;101053.77;;;12.22;69.73
3748;BME280;1889;50.058;8.688;2024-02-21T01:04:41;101053.77;;;12.22;69.73
3748;BME280;1889;50.058;8.688;2024-02-21T01:07:18;101051.41;;;12.37;69.34
3748;BME280;1889;50.058;8.688;2024-02-21T01:09:48;101051.41;;;12.37;69.34
3748;BME280;1889;50.058;8.688;2024-02-21T01:12:19;101058.00;;;12.40;69.17
3748;BME280;1889;50.058;8.688;2024-02-21T01:14:48;101069.53;;;12.28;69.22
3748;BME280;1889;50.058;8.688;2024-02-21T01:17:18;101066.31;;;12.42;68.83
3748;BME280;1889;50.058;8.688;2024-02-21T01:19:47;101069.60;;;12.22;69.41
3748;BME280;1889;50.058;8.688;2024-02-21T01:22:16;101069.81;;;11.99;70.29
3748;BME280;1889;50.058;8.688;2024-02-21T01:24:46;101071.44;;;12.12;70.17
3748;BME280;1889;50.058;8.688;2024-02-21T01:27:15;101070.41;;;12.30;69.32
3748;BME280;1889;50.058;8.688;2024-02-21T01:29:45;101071.22;;;12.35;69.08
3748;BME280;1889;50.058;8.688;2024-02-21T01:32:16;101069.67;;;12.16;69.81
3748;BME280;1889;50.058;8.688;2024-02-21T01:34:45;101073.93;;;12.29;69.38
3748;BME280;1889;50.058;8.688;2024-02-21T01:37:14;101080.02;;;12.37;69.21
3748;BME280;1889;50.058;8.688;2024-02-21T01:39:44;101079.73;;;12.18;70.07
3748;BME280;1889;50.058;8.688;2024-02-21T01:42:13;101067.34;;;12.26;69.74
3748;BME280;1889;50.058;8.688;2024-02-21T01:44:42;101062.63;;;12.15;70.33
3748;BME280;1889;50.058;8.688;2024-02-21T01:47:12;101062.48;;;12.30;69.52
3748;BME280;1889;50.058;8.688;2024-02-21T01:49:43;101055.88;;;12.32;69.29
3748;BME280;1889;50.058;8.688;2024-02-21T01:52:14;101042.98;;;12.42;69.12
3748;BME280;1889;50.058;8.688;2024-02-21T01:54:45;101036.38;;;12.45;69.18
3748;BME280;1889;50.058;8.688;2024-02-21T01:57:15;101027.94;;;12.51;69.18
3748;BME280;1889;50.058;8.688;2024-02-21T01:59:45;101031.00;;;12.52;69.07
3748;BME280;1889;50.058;8.688;2024-02-21T02:02:15;101035.74;;;12.20;69.92
3748;BME280;1889;50.058;8.688;2024-02-21T02:04:45;101033.53;;;12.22;69.97
3748;BME280;1889;50.058;8.688;2024-02-21T02:07:15;101034.77;;;12.30;69.65
3748;BME280;1889;50.058;8.688;2024-02-21T02:09:44;101022.05;;;12.25;69.81
3748;BME280;1889;50.058;8.688;2024-02-21T02:12:13;101023.78;;;12.29;69.79
3748;BME280;1889;50.058;8.688;2024-02-21T02:14:42;101023.25;;;12.37;69.20
3748;BME280;1889;50.058;8.688;2024-02-21T02:17:12;101028.12;;;12.33;69.13
3748;BME280;1889;50.058;8.688;2024-02-21T02:19:41;101028.03;;;12.42;68.78
3748;BME280;1889;50.058;8.688;2024-02-21T02:22:14;101028.03;;;12.42;68.78
3748;BME280;1889;50.058;8.688;2024-02-21T02:24:44;101008.67;;;12.42;68.58
3748;BME280;1889;50.058;8.688;2024-02-21T02:27:13;101008.67;;;12.42;68.58
3748;BME280;1889;50.058;8.688;2024-02-21T02:29:42;101012.61;;;12.45;68.71
3748;BME280;1889;50.058;8.688;2024-02-21T02:32:12;101015.25;;;12.45;68.85
3748;BME280;1889;50.058;8.688;2024-02-21T02:34:41;101013.48;;;12.45;68.92
3748;BME280;1889;50.058;8.688;2024-02-21T02:37:11;101011.09;;;12.24;69.51
3748;BME280;1889;50.058;8.688;2024-02-21T02:39:40;100992.44;;;12.39;68.78
3748;BME280;1889;50.058;8.688;2024-02-21T02:42:09;100998.08;;;12.46;68.53
3748;BME280;1889;50.058;8.688;2024-02-21T02:44:39;100991.52;;;12.42;68.42
3748;BME280;1889;50.058;8.688;2024-02-21T02:47:09;100973.43;;;12.47;68.20
3748;BME280;1889;50.058;8.688;2024-02-21T02:49:38;100973.43;;;12.47;68.20
3748;BME280;1889;50.058;8.688;2024-02-21T02:52:07;100958.86;;;12.49;68.18
3748;BME280;1889;50.058;8.688;2024-02-21T02:54:37;100963.42;;;12.36;68.09
3748;BME280;1889;50.058;8.688;2024-02-21T02:57:06;100963.63;;;12.16;69.16
3748;BME280;1889;50.058;8.688;2024-02-21T02:59:35;100969.34;;;12.17;69.08
3748;BME280;1889;50.058;8.688;2024-02-21T03:02:04;100974.25;;;12.12;68.70
3748;BME280;1889;50.058;8.688;2024-02-21T03:04:34;100974.25;;;12.12;68.70
3748;BME280;1889;50.058;8.688;2024-02-21T03:07:03;100980.34;;;12.17;68.79
3748;BME280;1889;50.058;8.688;2024-02-21T03:09:33;100977.30;;;12.16;68.86
3748;BME280;1889;50.058;8.688;2024-02-21T03:12:02;100978.67;;;12.08;69.19
3748;BME280;1889;50.058;8.688;2024-02-21T03:14:34;100967.19;;;11.67;70.61
3748;BME280;1889;50.058;8.688;2024-02-21T03:17:04;100967.19;;;11.67;70.61
3748;BME280;1889;50.058;8.688;2024-02-21T03:19:33;100962.19;;;11.87;70.23
3748;BME280;1889;50.058;8.688;2024-02-21T03:22:02;100945.77;;;12.01;69.83
3748;BME280;1889;50.058;8.688;2024-02-21T03:24:33;100938.55;;;11.76;70.67
3748;BME280;1889;50.058;8.688;2024-02-21T03:27:03;100938.55;;;11.76;70.67
3748;BME280;1889;50.058;8.688;2024-02-21T03:29:32;100931.61;;;11.61;71.32
3748;BME280;1889;50.058;8.688;2024-02-21T03:32:01;100930.53;;;11.88;70.56
3748;BME280;1889;50.058;8.688;2024-02-21T03:34:31;100926.39;;;12.05;70.05
3748;BME280;1889;50.058;8.688;2024-02-21T03:37:00;100920.50;;;12.20;69.17
3748;BME280;1889;50.058;8.688;2024-02-21T03:39:31;100922.42;;;12.08;70.29
3748;BME280;1889;50.058;8.688;2024-02-21T03:42:01;100922.42;;;12.08;70.29
3748;BME280;1889;50.058;8.688;2024-02-21T03:44:32;100910.73;;;12.27;69.48
3748;BME280;1889;50.058;8.688;2024-02-21T03:47:02;100912.41;;;12.34;69.16
3748;BME280;1889;50.058;8.688;2024-02-21T03:49:31;100910.97;;;12.45;68.46
3748;BME280;1889;50.058;8.688;2024-02-21T03:52:00;100908.78;;;12.43;68.53
3748;BME280;1889;50.058;8.688;2024-02-21T03:54:30;100908.41;;;12.39;68.77
3748;BME280;1889;50.058;8.688;2024-02-21T03:56:59;100913.62;;;12.43;68.73
3748;BME280;1889;50.058;8.688;2024-02-21T03:59:28;100919.22;;;12.53;68.39
3748;BME280;1889;50.058;8.688;2024-02-21T04:01:58;100921.63;;;12.00;69.00
3748;BME280;1889;50.058;8.688;2024-02-21T04:04:27;100937.72;;;12.16;68.85
3748;BME280;1889;50.058;8.688;2024-02-21T04:06:56;100940.61;;;12.32;68.50
3748;BME280;1889;50.058;8.688;2024-02-21T04:09:26;100926.38;;;12.44;68.28
3748;BME280;1889;50.058;8.688;2024-02-21T04:11:55;100926.98;;;12.31;68.64
3748;BME280;1889;50.058;8.688;2024-02-21T04:14:24;100924.16;;;12.46;67.95
3748;BME280;1889;50.058;8.688;2024-02-21T04:16:54;100921.95;;;12.46;67.84
3748;BME280;1889;50.058;8.688;2024-02-21T04:19:23;100913.84;;;12.59;66.99
3748;BME280;1889;50.058;8.688;2024-02-21T04:21:52;100915.57;;;12.64;66.57
3748;BME280;1889;50.058;8.688;2024-02-21T04:24:22;100912.88;;;12.65;66.55
3748;BME280;1889;50.058;8.688;2024-02-21T04:26:51;100908.55;;;12.61;66.49
3748;BME280;1889;50.058;8.688;2024-02-21T04:29:20;100898.98;;;12.52;66.74
3748;BME280;1889;50.058;8.688;2024-02-21T04:31:50;100900.33;;;12.49;66.86
3748;BME280;1889;50.058;8.688;2024-02-21T04:34:19;100879.19;;;12.51;66.46
3748;BME280;1889;50.058;8.688;2024-02-21T04:36:48;100865.62;;;12.47;66.32
3748;BME280;1889;50.058;8.688;2024-02-21T04:39:18;100866.17;;;12.39;66.32
3748;BME280;1889;50.058;8.688;2024-02-21T04:41:47;100872.37;;;12.35;66.54
3748;BME280;1889;50.058;8.688;2024-02-21T04:44:16;100856.09;;;12.35;66.52
3748;BME280;1889;50.058;8.688;2024-02-21T04:46:47;100843.94;;;12.23;66.89
3748;BME280;1889;50.058;8.688;2024-02-21T04:49:16;100845.22;;;12.25;66.68
3748;BME280;1889;50.058;8.688;2024-02-21T04:51:46;100843.74;;;12.03;66.91
3748;BME280;1889;50.058;8.688;2024-02-21T04:54:15;100842.42;;;12.03;67.13
3748;BME280;1889;50.058;8.688;2024-02-21T04:56:44;100845.89;;;11.67;68.22
3748;BME280;1889;50.058;8.688;2024-02-21T04:59:14;100848.88;;;11.28;69.88
3748;BME280;1889;50.058;8.688;2024-02-21T05:01:43;100844.98;;;11.25;70.05
3748;BME280;1889;50.058;8.688;2024-02-21T05:04:12;100839.12;;;11.42;69.40
3748;BME280;1889;50.058;8.688;2024-02-21T05:06:42;100828.52;;;11.45;69.21
3748;BME280;1889;50.058;8.688;2024-02-21T05:09:11;100829.39;;;11.47;69.13
3748;BME280;1889;50.058;8.688;2024-02-21T05:11:40;100826.25;;;11.52;69.01
3748;BME280;1889;50.058;8.688;2024-02-21T05:14:10;100819.92;;;10.75;72.43
3748;BME280;1889;50.058;8.688;2024-02-21T05:16:39;100825.81;;;11.06;71.54
3748;BME280;1889;50.058;8.688;2024-02-21T05:19:09;100829.84;;;10.97;71.83
3748;BME280;1889;50.058;8.688;2024-02-21T05:21:38;100836.87;;;10.95;72.23
3748;BME280;1889;50.058;8.688;2024-02-21T05:24:07;100832.58;;;10.86;72.65
3748;BME280;1889;50.058;8.688;2024-02-21T05:26:37;100832.58;;;10.86;72.78
3748;BME280;1889;50.058;8.688;2024-02-21T05:29:06;100840.20;;;10.61;73.89
3748;BME280;1889;50.058;8.688;2024-02-21T05:31:55;100849.47;;;10.52;74.56
3748;BME280;1889;50.058;8.688;2024-02-21T05:34:25;100856.73;;;10.81;73.31
3748;BME280;1889;50.058;8.688;2024-02-21T05:36:55;100869.83;;;10.93;72.70
3748;BME280;1889;50.058;8.688;2024-02-21T05:39:25;100869.70;;;11.08;71.96
3748;BME280;1889;50.058;8.688;2024-02-21T05:41:55;100870.97;;;11.15;71.80
3748;BME280;1889;50.058;8.688;2024-02-21T05:44:24;100874.35;;;11.29;71.45
3748;BME280;1889;50.058;8.688;2024-02-21T05:46:55;100874.48;;;11.15;71.63
3748;BME280;1889;50.058;8.688;2024-02-21T05:49:24;100873.15;;;11.18;71.84
3748;BME280;1889;50.058;8.688;2024-02-21T05:51:53;100876.16;;;11.27;71.48
3748;BME280;1889;50.058;8.688;2024-02-21T05:54:23;100867.23;;;11.40;71.06
3748;BME280;1889;50.058;8.688;2024-02-21T05:56:52;100857.28;;;11.24;71.50
3748;BME280;1889;50.058;8.688;2024-02-21T05:59:21;100849.73;;;11.33;71.40
3748;BME280;1889;50.058;8.688;2024-02-21T06:01:57;100837.30;;;11.45;70.93
3748;BME280;1889;50.058;8.688;2024-02-21T06:04:27;100835.00;;;11.59;70.43
3748;BME280;1889;50.058;8.688;2024-02-21T06:06:56;100834.88;;;11.26;71.47
3748;BME280;1889;50.058;8.688;2024-02-21T06:09:25;100830.36;;;11.37;71.11
3748;BME280;1889;50.058;8.688;2024-02-21T06:11:55;100834.07;;;11.18;71.29
3748;BME280;1889;50.058;8.688;2024-02-21T06:14:25;100834.07;;;11.18;71.29
3748;BME280;1889;50.058;8.688;2024-02-21T06:16:54;100823.40;;;11.31;71.22
3748;BME280;1889;50.058;8.688;2024-02-21T06:19:23;100821.86;;;11.07;72.20
3748;BME280;1889;50.058;8.688;2024-02-21T06:21:53;100807.89;;;10.96;72.69
3748;BME280;1889;50.058;8.688;2024-02-21T06:24:22;100804.55;;;10.78;72.94
3748;BME280;1889;50.058;8.688;2024-02-21T06:26:51;100807.58;;;10.82;73.49
3748;BME280;1889;50.058;8.688;2024-02-21T06:29:21;100809.77;;;10.84;73.17
3748;BME280;1889;50.058;8.688;2024-02-21T06:31:50;100812.64;;;11.06;72.50
3748;BME280;1889;50.058;8.688;2024-02-21T06:34:19;100820.09;;;11.08;72.02
3748;BME280;1889;50.058;8.688;2024-02-21T06:36:48;100821.92;;;11.01;72.27
3748;BME280;1889;50.058;8.688;2024-02-21T06:39:18;100817.78;;;11.20;71.58
3748;BME280;1889;50.058;8.688;2024-02-21T06:41:48;100815.12;;;11.23;71.09
3748;BME280;1889;50.058;8.688;2024-02-21T06:44:18;100805.70;;;10.96;71.99
3748;BME280;1889;50.058;8.688;2024-02-21T06:46:48;100798.22;;;10.98;71.76
3748;BME280;1889;50.058;8.688;2024-02-21T06:49:17;100797.97;;;10.76;72.58
3748;BME280;1889;50.058;8.688;2024-02-21T06:51:46;100789.02;;;10.97;71.81
3748;BME280;1889;50.058;8.688;2024-02-21T06:54:16;100789.02;;;10.97;71.81
3748;BME280;1889;50.058;8.688;2024-02-21T06:56:45;100788.95;;;11.04;71.73
3748;BME280;1889;50.058;8.688;2024-02-21T06:59:14;100784.75;;;10.84;71.94
3748;BME280;1889;50.058;8.688;2024-02-21T07:01:47;100791.08;;;10.60;72.96
3748;BME280;1889;50.058;8.688;2024-02-21T07:04:16;100794.08;;;10.70;72.68
3748;BME280;1889;50.058;8.688;2024-02-21T07:06:45;100797.86;;;10.90;72.00
3748;BME280;1889;50.058;8.688;2024-02-21T07:09:15;100797.87;;;10.87;71.73
3748;BME280;1889;50.058;8.688;2024-02-21T07:11:44;100802.23;;;10.91;71.79
3748;BME280;1889;50.058;8.688;2024-02-21T07:14:15;100812.71;;;10.98;71.99
3748;BME280;1889;50.058;8.688;2024-02-21T07:16:44;100804.49;;;10.85;72.45
3748;BME280;1889;50.058;8.688;2024-02-21T07:19:14;100801.05;;;10.74;72.93
3748;BME280;1889;50.058;8.688;2024-02-21T07:21:43;100794.29;;;10.95;72.37
3748;BME280;1889;50.058;8.688;2024-02-21T07:24:13;100791.39;;;10.78;72.89
3748;BME280;1889;50.058;8.688;2024-02-21T07:26:45;100791.14;;;11.05;72.09
3748;BME280;1889;50.058;8.688;2024-02-21T07:29:15;100783.52;;;11.23;71.27
3748;BME280;1889;50.058;8.688;2024-02-21T07:31:44;100787.90;;;11.24;71.29
3748;BME280;1889;50.058;8.688;2024-02-21T07:34:15;100786.81;;;10.98;72.26
3748;BME280;1889;50.058;8.688;2024-02-21T07:36:45;100782.19;;;11.24;71.44
3748;BME280;1889;50.058;8.688;2024-02-21T07:39:14;100781.38;;;11.18;71.42
3748;BME280;1889;50.058;8.688;2024-02-21T07:41:44;100785.62;;;10.86;72.10
3748;BME280;1889;50.058;8.688;2024-02-21T07:44:15;100791.55;;;11.09;71.99
3748;BME280;1889;50.058;8.688;2024-02-21T07:46:44;100787.39;;;11.29;70.92
3748;BME280;1889;50.058;8.688;2024-02-21T07:49:14;100791.69;;;11.40;70.80
3748;BME280;1889;50.058;8.688;2024-02-21T07:51:43;100784.89;;;11.18;70.31
3748;BME280;1889;50.058;8.688;2024-02-21T07:54:12;100786.59;;;11.21;71.39
3748;BME280;1889;50.058;8.688;2024-02-21T07:56:42;100786.30;;;11.06;72.66
3748;BME280;1889;50.058;8.688;2024-02-21T07:59:11;100784.22;;;11.40;71.62
3748;BME280;1889;50.058;8.688;2024-02-21T08:01:42;100781.09;;;11.43;71.13
3748;BME280;1889;50.058;8.688;2024-02-21T08:04:12;100779.83;;;11.40;70.10
3748;BME280;1889;50.058;8.688;2024-02-21T08:06:42;100777.55;;;11.47;69.91
3748;BME280;1889;50.058;8.688;2024-02-21T08:09:13;100783.77;;;11.42;70.27
3748;BME280;1889;50.058;8.688;2024-02-21T08:11:42;100781.08;;;11.45;69.87
3748;BME280;1889;50.058;8.688;2024-02-21T08:14:11;100786.52;;;11.69;69.35
3748;BME280;1889;50.058;8.688;2024-02-21T08:16:43;100779.31;;;11.88;68.64
3748;BME280;1889;50.058;8.688;2024-02-21T08:19:12;100764.03;;;11.78;68.94
3748;BME280;1889;50.058;8.688;2024-02-21T08:21:41;100761.52;;;12.03;68.29
3748;BME280;1889;50.058;8.688;2024-02-21T08:24:11;100755.84;;;11.63;68.76
3748;BME280;1889;50.058;8.688;2024-02-21T08:26:43;100746.83;;;11.43;69.28
3748;BME280;1889;50.058;8.688;2024-02-21T08:29:16;100748.44;;;11.58;69.12
3748;BME280;1889;50.058;8.688;2024-02-21T08:31:45;100754.61;;;11.56;68.87
3748;BME280;1889;50.058;8.688;2024-02-21T08:34:14;100748.64;;;11.79;68.60
3748;BME280;1889;50.058;8.688;2024-02-21T08:36:44;100744.78;;;11.68;68.77
3748;BME280;1889;50.058;8.688;2024-02-21T08:39:13;100737.31;;;11.68;68.10
3748;BME280;1889;50.058;8.688;2024-02-21T08:41:44;100738.01;;;11.85;67.80
3748;BME280;1889;50.058;8.688;2024-02-21T08:44:13;100739.95;;;12.05;67.42
3748;BME280;1889;50.058;8.688;2024-02-21T08:46:42;100738.44;;;11.86;67.41
3748;BME280;1889;50.058;8.688;2024-02-21T08:49:12;100735.98;;;12.07;67.01
3748;BME280;1889;50.058;8.688;2024-02-21T08:51:42;100739.25;;;12.24;66.63
3748;BME280;1889;50.058;8.688;2024-02-21T08:54:12;100739.73;;;11.89;67.25
3748;BME280;1889;50.058;8.688;2024-02-21T08:56:41;100733.80;;;12.05;66.79
3748;BME280;1889;50.058;8.688;2024-02-21T08:59:10;100731.34;;;12.24;66.39
3748;BME280;1889;50.058;8.688;2024-02-21T09:01:39;100730.52;;;12.19;66.67
3748;BME280;1889;50.058;8.688;2024-02-21T09:04:09;100732.69;;;12.21;66.47
3748;BME280;1889;50.058;8.688;2024-02-21T09:06:38;100721.53;;;12.01;66.69
3748;BME280;1889;50.058;8.688;2024-02-21T09:09:09;100708.98;;;12.16;65.99
3748;BME280;1889;50.058;8.688;2024-02-21T09:11:39;100710.92;;;12.34;65.61
3748;BME280;1889;50.058;8.688;2024-02-21T09:14:08;100708.39;;;11.99;65.56
3748;BME280;1889;50.058;8.688;2024-02-21T09:16:38;100708.28;;;12.07;65.79
3748;BME280;1889;50.058;8.688;2024-02-21T09:19:07;100705.70;;;12.32;65.35
3748;BME280;1889;50.058;8.688;2024-02-21T09:21:38;100703.66;;;12.21;65.00
3748;BME280;1889;50.058;8.688;2024-02-21T09:24:08;100694.64;;;12.34;64.70
3748;BME280;1889;50.058;8.688;2024-02-21T09:26:37;100691.06;;;12.40;64.08
3748;BME280;1889;50.058;8.688;2024-02-21T09:29:06;100687.80;;;12.24;64.53
3748;BME280;1889;50.058;8.688;2024-02-21T09:31:36;100686.27;;;12.36;64.67
3748;BME280;1889;50.058;8.688;2024-02-21T09:34:06;100678.97;;;12.52;64.19
3748;BME280;1889;50.058;8.688;2024-02-21T09:36:36;100675.19;;;12.67;63.70
3748;BME280;1889;50.058;8.688;2024-02-21T09:39:06;100676.20;;;12.83;63.56
3748;BME280;1889;50.058;8.688;2024-02-21T09:41:37;100671.88;;;12.55;63.56
3748;BME280;1889;50.058;8.688;2024-02-21T09:44:09;100669.77;;;12.74;63.34
3748;BME280;1889;50.058;8.688;2024-02-21T09:47:03;100671.16;;;12.95;62.79
3748;BME280;1889;50.058;8.688;2024-02-21T09:49:33;100678.91;;;12.56;62.15
3748;BME280;1889;50.058;8.688;2024-02-21T09:52:05;100675.47;;;12.50;63.31
3748;BME280;1889;50.058;8.688;2024-02-21T09:54:35;100669.88;;;12.68;63.01
3748;BME280;1889;50.058;8.688;2024-02-21T09:57:05;100665.22;;;12.82;62.29
3748;BME280;1889;50.058;8.688;2024-02-21T09:59:34;100668.89;;;12.74;62.04
3748;BME280;1889;50.058;8.688;2024-02-21T10:02:04;100668.95;;;12.45;62.46
3748;BME280;1889;50.058;8.688;2024-02-21T10:04:34;100666.93;;;12.34;62.02
3748;BME280;1889;50.058;8.688;2024-02-21T10:07:04;100671.95;;;12.49;62.26
3748;BME280;1889;50.058;8.688;2024-02-21T10:09:33;100667.92;;;12.55;62.07
3748;BME280;1889;50.058;8.688;2024-02-21T10:12:09;100675.86;;;12.26;62.34
3748;BME280;1889;50.058;8.688;2024-02-21T10:14:39;100663.79;;;12.39;62.57
3748;BME280;1889;50.058;8.688;2024-02-21T10:17:14;100658.58;;;12.08;63.41
3748;BME280;1889;50.058;8.688;2024-02-21T10:19:41;100655.52;;;12.05;64.25
3748;BME280;1889;50.058;8.688;2024-02-21T10:22:10;100646.24;;;12.35;63.97
3748;BME280;1889;50.058;8.688;2024-02-21T10:24:40;100645.62;;;12.72;63.11
3748;BME280;1889;50.058;8.688;2024-02-21T10:27:11;100640.07;;;12.36;62.75
3748;BME280;1889;50.058;8.688;2024-02-21T10:29:41;100633.31;;;12.45;63.23
3748;BME280;1889;50.058;8.688;2024-02-21T10:32:12;100630.22;;;12.71;63.06
3748;BME280;1889;50.058;8.688;2024-02-21T10:34:42;100622.19;;;12.99;61.99
3748;BME280;1889;50.058;8.688;2024-02-21T10:37:12;100623.19;;;12.94;61.53
3748;BME280;1889;50.058;8.688;2024-02-21T10:39:42;100627.42;;;12.56;62.66
3748;BME280;1889;50.058;8.688;2024-02-21T10:42:12;100616.13;;;12.48;63.07
3748;BME280;1889;50.058;8.688;2024-02-21T10:44:44;100613.07;;;12.46;63.16
3748;BME280;1889;50.058;8.688;2024-02-21T10:47:16;100608.12;;;12.51;62.35
3748;BME280;1889;50.058;8.688;2024-02-21T10:49:49;100600.89;;;12.63;62.45
3748;BME280;1889;50.058;8.688;2024-02-21T10:52:30;100599.53;;;12.88;62.21
3748;BME280;1889;50.058;8.688;2024-02-21T10:57:33;100589.27;;;13.17;61.36
3748;BME280;1889;50.058;8.688;2024-02-21T11:00:05;100582.64;;;13.38;61.00
3748;BME280;1889;50.058;8.688;2024-02-21T11:02:36;100581.97;;;13.49;60.89
3748;BME280;1889;50.058;8.688;2024-02-21T11:05:08;100577.94;;;13.52;60.56
3748;BME280;1889;50.058;8.688;2024-02-21T11:07:38;100576.65;;;13.30;60.71
3748;BME280;1889;50.058;8.688;2024-02-21T11:10:31;100575.95;;;13.43;60.74
3748;BME280;1889;50.058;8.688;2024-02-21T11:12:40;100571.84;;;12.85;61.04
3748;BME280;1889;50.058;8.688;2024-02-21T11:15:09;100569.81;;;13.21;61.67
3748;BME280;1889;50.058;8.688;2024-02-21T11:17:40;100560.78;;;13.30;61.19
3748;BME280;1889;50.058;8.688;2024-02-21T11:20:13;100553.18;;;13.55;60.37
3748;BME280;1889;50.058;8.688;2024-02-21T11:22:43;100546.72;;;13.49;60.15
3748;BME280;1889;50.058;8.688;2024-02-21T11:25:12;100535.22;;;13.30;60.74
3748;BME280;1889;50.058;8.688;2024-02-21T11:27:46;100529.77;;;13.57;60.01
3748;BME280;1889;50.058;8.688;2024-02-21T11:30:16;100530.85;;;13.49;60.45
3748;BME280;1889;50.058;8.688;2024-02-21T11:32:47;100529.08;;;13.68;60.40
3748;BME280;1889;50.058;8.688;2024-02-21T11:35:22;100522.62;;;13.43;60.24
3748;BME280;1889;50.058;8.688;2024-02-21T11:37:51;100523.12;;;13.78;59.63
3748;BME280;1889;50.058;8.688;2024-02-21T11:40:20;100521.80;;;13.59;59.70
3748;BME280;1889;50.058;8.688;2024-02-21T11:42:50;100514.77;;;13.38;59.27
3748;BME280;1889;50.058;8.688;2024-02-21T11:45:19;100502.30;;;13.63;59.26
3748;BME280;1889;50.058;8.688;2024-02-21T11:47:49;100491.09;;;13.53;59.09
3748;BME280;1889;50.058;8.688;2024-02-21T11:50:19;100481.69;;;13.59;58.99
3748;BME280;1889;50.058;8.688;2024-02-21T11:52:48;100477.50;;;13.68;58.74
3748;BME280;1889;50.058;8.688;2024-02-21T11:55:18;100476.95;;;13.90;58.46
3748;BME280;1889;50.058;8.688;2024-02-21T11:57:48;100472.62;;;13.69;58.47
3748;BME280;1889;50.058;8.688;2024-02-21T12:00:19;100475.14;;;13.56;58.91
3748;BME280;1889;50.058;8.688;2024-02-21T12:02:53;100464.78;;;13.83;58.43
3748;BME280;1889;50.058;8.688;2024-02-21T12:05:26;100463.52;;;13.97;58.10
3748;BME280;1889;50.058;8.688;2024-02-21T12:07:57;100455.04;;;13.85;57.81
3748;BME280;1889;50.058;8.688;2024-02-21T12:10:27;100442.55;;;13.90;57.96
3748;BME280;1889;50.058;8.688;2024-02-21T12:13:06;100443.80;;;13.93;57.56
3748;BME280;1889;50.058;8.688;2024-02-21T12:15:36;100435.14;;;13.70;58.36
3748;BME280;1889;50.058;8.688;2024-02-21T12:18:07;100429.11;;;13.97;58.21
3748;BME280;1889;50.058;8.688;2024-02-21T12:20:39;100419.95;;;13.94;58.01
3748;BME280;1889;50.058;8.688;2024-02-21T12:23:11;100414.45;;;14.02;57.54
3748;BME280;1889;50.058;8.688;2024-02-21T12:25:41;100411.27;;;14.20;57.02
3748;BME280;1889;50.058;8.688;2024-02-21T12:28:11;100408.53;;;14.08;57.37
3748;BME280;1889;50.058;8.688;2024-02-21T12:30:40;100402.68;;;14.12;57.50
3748;BME280;1889;50.058;8.688;2024-02-21T12:33:11;100394.25;;;14.14;57.62
3748;BME280;1889;50.058;8.688;2024-02-21T12:35:42;100388.86;;;14.33;57.23
3748;BME280;1889;50.058;8.688;2024-02-21T12:38:11;100379.28;;;14.28;56.85
3748;BME280;1889;50.058;8.688;2024-02-21T12:40:41;100380.26;;;13.94;58.01
3748;BME280;1889;50.058;8.688;2024-02-21T12:43:11;100370.39;;;14.16;57.95
3748;BME280;1889;50.058;8.688;2024-02-21T12:45:40;100360.05;;;14.06;58.10
3748;BME280;1889;50.058;8.688;2024-02-21T12:48:09;100356.86;;;14.26;57.19
3748;BME280;1889;50.058;8.688;2024-02-21T12:50:39;100349.89;;;14.07;57.02
3748;BME280;1889;50.058;8.688;2024-02-21T12:53:09;100347.23;;;13.77;58.28
3748;BME280;1889;50.058;8.688;2024-02-21T12:55:39;100341.56;;;14.05;57.45
3748;BME280;1889;50.058;8.688;2024-02-21T12:58:09;100345.99;;;14.04;57.06
3748;BME280;1889;50.058;8.688;2024-02-21T13:00:38;100346.19;;;14.13;56.90
3748;BME280;1889;50.058;8.688;2024-02-21T13:03:07;100341.37;;;13.96;57.29
3748;BME280;1889;50.058;8.688;2024-02-21T13:05:39;100335.27;;;13.94;56.65
3748;BME280;1889;50.058;8.688;2024-02-21T13:08:09;100336.67;;;13.91;56.99
3748;BME280;1889;50.058;8.688;2024-02-21T13:10:40;100339.14;;;13.97;56.53
3748;BME280;1889;50.058;8.688;2024-02-21T13:13:09;100337.07;;;14.08;56.80
3748;BME280;1889;50.058;8.688;2024-02-21T13:15:39;100331.70;;;14.26;56.50
3748;BME280;1889;50.058;8.688;2024-02-21T13:18:10;100320.12;;;14.45;56.32
3748;BME280;1889;50.058;8.688;2024-02-21T13:20:39;100305.11;;;14.29;56.22
3748;BME280;1889;50.058;8.688;2024-02-21T13:23:09;100305.98;;;14.15;55.84
3748;BME280;1889;50.058;8.688;2024-02-21T13:25:38;100301.59;;;13.99;56.00
3748;BME280;1889;50.058;8.688;2024-02-21T13:28:07;100285.64;;;14.17;56.34